sensor_id;sensor_type;location;lat;lon;timestamp;temperature;humidity
23289;DHT22;11813;50.834;4.280;2023-10-08T00:01:21;17.90;99.90
23289;DHT22;11813;50.834;4.280;2023-10-08T00:03:47;17.80;99.90
23289;DHT22;11813;50.834;4.280;2023-10-08T00:06:17;17.90;99.90
23289;DHT22;11813;50.834;4.280;2023-10-08T00:08:45;17.80;99.90
23289;DHT22;11813;50.834;4.280;2023-10-08T00:11:11;17.90;99.90
23289;DHT22;11813;50.834;4.280;2023-10-08T00:13:37;17.80;99.90
23289;DHT22;11813;50.834;4.280;2023-10-08T00:16:06;17.80;99.90
23289;DHT22;11813;50.834;4.280;2023-10-08T00:18:36;17.70;99.90
23289;DHT22;11813;50.834;4.280;2023-10-08T00:21:03;17.70;99.90
23289;DHT22;11813;50.834;4.280;2023-10-08T00:23:38;17.70;99.90
23289;DHT22;11813;50.834;4.280;2023-10-08T00:26:21;17.70;99.90
23289;DHT22;11813;50.834;4.280;2023-10-08T00:29:03;17.60;99.90
23289;DHT22;11813;50.834;4.280;2023-10-08T00:31:40;17.50;99.90
23289;DHT22;11813;50.834;4.280;2023-10-08T00:34:07;17.30;99.90
23289;DHT22;11813;50.834;4.280;2023-10-08T00:36:37;17.40;99.90
23289;DHT22;11813;50.834;4.280;2023-10-08T00:39:04;17.40;99.90
23289;DHT22;11813;50.834;4.280;2023-10-08T00:41:33;17.40;99.90
23289;DHT22;11813;50.834;4.280;2023-10-08T00:43:59;17.40;99.90
23289;DHT22;11813;50.834;4.280;2023-10-08T00:46:26;17.50;99.90
23289;DHT22;11813;50.834;4.280;2023-10-08T00:49:02;17.50;99.90
23289;DHT22;11813;50.834;4.280;2023-10-08T00:51:46;17.50;99.90
23289;DHT22;11813;50.834;4.280;2023-10-08T00:54:12;17.30;99.90
23289;DHT22;11813;50.834;4.280;2023-10-08T00:56:46;17.30;99.90
23289;DHT22;11813;50.834;4.280;2023-10-08T00:59:19;17.20;99.90
23289;DHT22;11813;50.834;4.280;2023-10-08T01:01:47;17.20;99.90
23289;DHT22;11813;50.834;4.280;2023-10-08T01:04:25;17.10;99.90
23289;DHT22;11813;50.834;4.280;2023-10-08T01:07:00;17.10;99.90
23289;DHT22;11813;50.834;4.280;2023-10-08T01:09:39;17.00;99.90
23289;DHT22;11813;50.834;4.280;2023-10-08T01:12:11;17.00;99.90
23289;DHT22;11813;50.834;4.280;2023-10-08T01:14:38;17.00;99.90
23289;DHT22;11813;50.834;4.280;2023-10-08T01:17:08;16.90;99.90
23289;DHT22;11813;50.834;4.280;2023-10-08T01:19:34;16.90;99.90
23289;DHT22;11813;50.834;4.280;2023-10-08T01:22:07;16.90;99.90
23289;DHT22;11813;50.834;4.280;2023-10-08T01:24:33;16.90;99.90
23289;DHT22;11813;50.834;4.280;2023-10-08T01:27:02;16.80;99.90
23289;DHT22;11813;50.834;4.280;2023-10-08T01:29:34;16.70;99.90
23289;DHT22;11813;50.834;4.280;2023-10-08T01:32:01;16.70;99.90
23289;DHT22;11813;50.834;4.280;2023-10-08T01:34:28;16.60;99.90
23289;DHT22;11813;50.834;4.280;2023-10-08T01:36:56;16.60;99.90
23289;DHT22;11813;50.834;4.280;2023-10-08T01:39:27;16.50;99.90
23289;DHT22;11813;50.834;4.280;2023-10-08T01:41:53;16.60;99.90
23289;DHT22;11813;50.834;4.280;2023-10-08T01:44:19;16.60;99.90
23289;DHT22;11813;50.834;4.280;2023-10-08T01:46:44;16.50;99.90
23289;DHT22;11813;50.834;4.280;2023-10-08T01:49:11;16.50;99.90
23289;DHT22;11813;50.834;4.280;2023-10-08T01:51:40;16.40;99.90
23289;DHT22;11813;50.834;4.280;2023-10-08T01:54:13;16.30;99.90
23289;DHT22;11813;50.834;4.280;2023-10-08T01:56:41;16.30;99.90
23289;DHT22;11813;50.834;4.280;2023-10-08T01:59:14;16.30;99.90
23289;DHT22;11813;50.834;4.280;2023-10-08T02:01:41;16.20;99.90
23289;DHT22;11813;50.834;4.280;2023-10-08T02:04:09;16.20;99.90
23289;DHT22;11813;50.834;4.280;2023-10-08T02:06:38;16.20;99.90
23289;DHT22;11813;50.834;4.280;2023-10-08T02:09:07;16.20;99.90
23289;DHT22;11813;50.834;4.280;2023-10-08T02:11:56;16.00;99.90
23289;DHT22;11813;50.834;4.280;2023-10-08T02:14:22;16.10;99.90
23289;DHT22;11813;50.834;4.280;2023-10-08T02:16:49;16.10;99.90
23289;DHT22;11813;50.834;4.280;2023-10-08T02:19:15;16.20;99.90
23289;DHT22;11813;50.834;4.280;2023-10-08T02:21:46;16.00;99.90
23289;DHT22;11813;50.834;4.280;2023-10-08T02:24:12;16.00;99.90
23289;DHT22;11813;50.834;4.280;2023-10-08T02:26:39;16.00;99.90
23289;DHT22;11813;50.834;4.280;2023-10-08T02:29:05;15.90;99.90
23289;DHT22;11813;50.834;4.280;2023-10-08T02:31:39;15.90;99.90
23289;DHT22;11813;50.834;4.280;2023-10-08T02:34:06;16.00;99.90
23289;DHT22;11813;50.834;4.280;2023-10-08T02:36:36;15.90;99.90
23289;DHT22;11813;50.834;4.280;2023-10-08T02:39:06;15.90;99.90
23289;DHT22;11813;50.834;4.280;2023-10-08T02:41:42;15.80;99.90
23289;DHT22;11813;50.834;4.280;2023-10-08T02:44:11;15.90;99.90
23289;DHT22;11813;50.834;4.280;2023-10-08T02:46:46;15.80;99.90
23289;DHT22;11813;50.834;4.280;2023-10-08T02:49:16;15.90;99.90
23289;DHT22;11813;50.834;4.280;2023-10-08T02:51:54;15.90;99.90
23289;DHT22;11813;50.834;4.280;2023-10-08T02:54:22;15.80;99.90
23289;DHT22;11813;50.834;4.280;2023-10-08T02:56:51;15.90;99.90
23289;DHT22;11813;50.834;4.280;2023-10-08T02:59:20;16.00;99.90
23289;DHT22;11813;50.834;4.280;2023-10-08T03:01:49;16.00;99.90
23289;DHT22;11813;50.834;4.280;2023-10-08T03:04:21;16.00;99.90
23289;DHT22;11813;50.834;4.280;2023-10-08T03:06:49;16.00;99.90
23289;DHT22;11813;50.834;4.280;2023-10-08T03:09:24;15.90;99.90
23289;DHT22;11813;50.834;4.280;2023-10-08T03:11:51;16.00;99.90
23289;DHT22;11813;50.834;4.280;2023-10-08T03:14:18;16.00;99.90
23289;DHT22;11813;50.834;4.280;2023-10-08T03:16:51;16.00;99.90
23289;DHT22;11813;50.834;4.280;2023-10-08T03:19:23;16.00;99.90
23289;DHT22;11813;50.834;4.280;2023-10-08T03:21:50;16.00;99.90
23289;DHT22;11813;50.834;4.280;2023-10-08T03:24:19;15.90;99.90
23289;DHT22;11813;50.834;4.280;2023-10-08T03:27:14;15.90;99.90
23289;DHT22;11813;50.834;4.280;2023-10-08T03:29:49;16.00;99.90
23289;DHT22;11813;50.834;4.280;2023-10-08T03:32:15;15.90;99.90
23289;DHT22;11813;50.834;4.280;2023-10-08T03:34:47;15.90;99.90
23289;DHT22;11813;50.834;4.280;2023-10-08T03:37:17;15.90;99.90
23289;DHT22;11813;50.834;4.280;2023-10-08T03:39:50;15.80;99.90
23289;DHT22;11813;50.834;4.280;2023-10-08T03:42:34;15.80;99.90
23289;DHT22;11813;50.834;4.280;2023-10-08T03:45:05;15.80;99.90
23289;DHT22;11813;50.834;4.280;2023-10-08T03:47:38;15.80;99.90
23289;DHT22;11813;50.834;4.280;2023-10-08T03:50:07;15.90;99.90
23289;DHT22;11813;50.834;4.280;2023-10-08T03:52:35;15.90;99.90
23289;DHT22;11813;50.834;4.280;2023-10-08T03:55:06;15.80;99.90
23289;DHT22;11813;50.834;4.280;2023-10-08T03:57:52;15.80;99.90
23289;DHT22;11813;50.834;4.280;2023-10-08T04:00:24;15.70;99.90
23289;DHT22;11813;50.834;4.280;2023-10-08T04:03:06;15.70;99.90
23289;DHT22;11813;50.834;4.280;2023-10-08T04:05:38;15.60;99.90
23289;DHT22;11813;50.834;4.280;2023-10-08T04:08:32;15.70;99.90
23289;DHT22;11813;50.834;4.280;2023-10-08T04:11:20;15.70;99.90
23289;DHT22;11813;50.834;4.280;2023-10-08T04:13:57;15.60;99.90
23289;DHT22;11813;50.834;4.280;2023-10-08T04:16:33;15.60;99.90
23289;DHT22;11813;50.834;4.280;2023-10-08T04:19:04;15.60;99.90
23289;DHT22;11813;50.834;4.280;2023-10-08T04:21:30;15.60;99.90
23289;DHT22;11813;50.834;4.280;2023-10-08T04:24:02;15.60;99.90
23289;DHT22;11813;50.834;4.280;2023-10-08T04:26:31;15.60;99.90
23289;DHT22;11813;50.834;4.280;2023-10-08T04:28:59;15.50;99.90
23289;DHT22;11813;50.834;4.280;2023-10-08T04:31:31;15.50;99.90
23289;DHT22;11813;50.834;4.280;2023-10-08T04:34:09;15.50;99.90
23289;DHT22;11813;50.834;4.280;2023-10-08T04:36:42;15.50;99.90
23289;DHT22;11813;50.834;4.280;2023-10-08T04:39:10;15.40;99.90
23289;DHT22;11813;50.834;4.280;2023-10-08T04:41:41;15.40;99.90
23289;DHT22;11813;50.834;4.280;2023-10-08T04:44:11;15.40;99.90
23289;DHT22;11813;50.834;4.280;2023-10-08T04:46:44;15.40;99.90
23289;DHT22;11813;50.834;4.280;2023-10-08T04:49:16;15.40;99.90
23289;DHT22;11813;50.834;4.280;2023-10-08T04:52:04;15.40;99.90
23289;DHT22;11813;50.834;4.280;2023-10-08T04:54:44;15.40;99.90
23289;DHT22;11813;50.834;4.280;2023-10-08T04:57:17;15.30;99.90
23289;DHT22;11813;50.834;4.280;2023-10-08T04:59:43;15.30;99.90
23289;DHT22;11813;50.834;4.280;2023-10-08T05:02:09;15.30;99.90
23289;DHT22;11813;50.834;4.280;2023-10-08T05:04:45;15.30;99.90
23289;DHT22;11813;50.834;4.280;2023-10-08T05:07:22;15.30;99.90
23289;DHT22;11813;50.834;4.280;2023-10-08T05:10:07;15.20;99.90
23289;DHT22;11813;50.834;4.280;2023-10-08T05:12:33;15.20;99.90
23289;DHT22;11813;50.834;4.280;2023-10-08T05:15:17;15.10;99.90
23289;DHT22;11813;50.834;4.280;2023-10-08T05:18:04;15.10;99.90
23289;DHT22;11813;50.834;4.280;2023-10-08T05:20:45;15.10;99.90
23289;DHT22;11813;50.834;4.280;2023-10-08T05:23:19;15.10;99.90
23289;DHT22;11813;50.834;4.280;2023-10-08T05:25:50;15.10;99.90
23289;DHT22;11813;50.834;4.280;2023-10-08T05:28:39;15.10;99.90
23289;DHT22;11813;50.834;4.280;2023-10-08T05:31:24;15.10;99.90
23289;DHT22;11813;50.834;4.280;2023-10-08T05:34:08;15.10;99.90
23289;DHT22;11813;50.834;4.280;2023-10-08T05:36:43;15.10;99.90
23289;DHT22;11813;50.834;4.280;2023-10-08T05:39:27;15.10;99.90
23289;DHT22;11813;50.834;4.280;2023-10-08T05:42:06;15.10;99.90
23289;DHT22;11813;50.834;4.280;2023-10-08T05:44:51;15.10;99.90
23289;DHT22;11813;50.834;4.280;2023-10-08T05:47:34;15.10;99.90
23289;DHT22;11813;50.834;4.280;2023-10-08T05:50:00;15.10;99.90
23289;DHT22;11813;50.834;4.280;2023-10-08T05:52:46;15.00;99.90
23289;DHT22;11813;50.834;4.280;2023-10-08T05:55:27;15.00;99.90
23289;DHT22;11813;50.834;4.280;2023-10-08T05:58:04;14.90;99.90
23289;DHT22;11813;50.834;4.280;2023-10-08T06:00:46;14.90;99.90
23289;DHT22;11813;50.834;4.280;2023-10-08T06:03:28;14.90;99.90
23289;DHT22;11813;50.834;4.280;2023-10-08T06:06:12;14.90;99.90
23289;DHT22;11813;50.834;4.280;2023-10-08T06:08:39;15.00;99.90
23289;DHT22;11813;50.834;4.280;2023-10-08T06:11:22;15.00;99.90
23289;DHT22;11813;50.834;4.280;2023-10-08T06:14:08;15.10;99.90
23289;DHT22;11813;50.834;4.280;2023-10-08T06:16:43;15.10;99.90
23289;DHT22;11813;50.834;4.280;2023-10-08T06:19:15;15.10;99.90
23289;DHT22;11813;50.834;4.280;2023-10-08T06:21:42;15.10;99.90
23289;DHT22;11813;50.834;4.280;2023-10-08T06:24:09;15.10;99.90
23289;DHT22;11813;50.834;4.280;2023-10-08T06:26:39;15.10;99.90
23289;DHT22;11813;50.834;4.280;2023-10-08T06:29:09;15.10;99.90
23289;DHT22;11813;50.834;4.280;2023-10-08T06:31:45;15.10;99.90
23289;DHT22;11813;50.834;4.280;2023-10-08T06:34:16;15.20;99.90
23289;DHT22;11813;50.834;4.280;2023-10-08T06:36:42;15.30;99.90
23289;DHT22;11813;50.834;4.280;2023-10-08T06:39:08;15.30;99.90
23289;DHT22;11813;50.834;4.280;2023-10-08T06:41:37;15.40;99.90
23289;DHT22;11813;50.834;4.280;2023-10-08T06:44:03;15.50;99.90
23289;DHT22;11813;50.834;4.280;2023-10-08T06:46:30;15.50;99.90
23289;DHT22;11813;50.834;4.280;2023-10-08T06:49:01;15.50;99.90
23289;DHT22;11813;50.834;4.280;2023-10-08T06:51:27;15.60;99.90
23289;DHT22;11813;50.834;4.280;2023-10-08T06:53:56;15.60;99.90
23289;DHT22;11813;50.834;4.280;2023-10-08T06:56:24;15.70;99.90
23289;DHT22;11813;50.834;4.280;2023-10-08T06:58:50;15.80;99.90
23289;DHT22;11813;50.834;4.280;2023-10-08T07:01:21;15.80;99.90
23289;DHT22;11813;50.834;4.280;2023-10-08T07:03:51;15.80;99.90
23289;DHT22;11813;50.834;4.280;2023-10-08T07:06:18;15.90;99.90
23289;DHT22;11813;50.834;4.280;2023-10-08T07:08:57;16.00;99.90
23289;DHT22;11813;50.834;4.280;2023-10-08T07:11:25;16.00;99.90
23289;DHT22;11813;50.834;4.280;2023-10-08T07:13:52;16.00;99.90
23289;DHT22;11813;50.834;4.280;2023-10-08T07:16:18;16.00;99.90
23289;DHT22;11813;50.834;4.280;2023-10-08T07:18:46;16.10;99.90
23289;DHT22;11813;50.834;4.280;2023-10-08T07:21:20;16.00;99.90
23289;DHT22;11813;50.834;4.280;2023-10-08T07:23:54;16.10;99.90
23289;DHT22;11813;50.834;4.280;2023-10-08T07:26:28;16.20;99.90
23289;DHT22;11813;50.834;4.280;2023-10-08T07:29:05;16.40;99.90
23289;DHT22;11813;50.834;4.280;2023-10-08T07:31:35;16.50;99.90
23289;DHT22;11813;50.834;4.280;2023-10-08T07:34:02;16.60;99.90
23289;DHT22;11813;50.834;4.280;2023-10-08T07:36:48;16.70;99.90
23289;DHT22;11813;50.834;4.280;2023-10-08T07:39:18;16.80;99.90
23289;DHT22;11813;50.834;4.280;2023-10-08T07:42:04;16.80;99.90
23289;DHT22;11813;50.834;4.280;2023-10-08T07:44:34;17.00;99.90
23289;DHT22;11813;50.834;4.280;2023-10-08T07:47:04;17.10;99.90
23289;DHT22;11813;50.834;4.280;2023-10-08T07:49:31;17.10;99.90
23289;DHT22;11813;50.834;4.280;2023-10-08T07:51:57;17.10;99.90
23289;DHT22;11813;50.834;4.280;2023-10-08T07:54:25;17.20;99.90
23289;DHT22;11813;50.834;4.280;2023-10-08T07:56:54;17.20;99.90
23289;DHT22;11813;50.834;4.280;2023-10-08T07:59:44;17.20;99.90
23289;DHT22;11813;50.834;4.280;2023-10-08T08:02:14;17.30;99.90
23289;DHT22;11813;50.834;4.280;2023-10-08T08:04:42;17.40;99.90
23289;DHT22;11813;50.834;4.280;2023-10-08T08:07:16;17.50;99.90
23289;DHT22;11813;50.834;4.280;2023-10-08T08:09:43;17.60;99.90
23289;DHT22;11813;50.834;4.280;2023-10-08T08:12:19;17.50;99.90
23289;DHT22;11813;50.834;4.280;2023-10-08T08:14:47;17.50;99.90
23289;DHT22;11813;50.834;4.280;2023-10-08T08:17:14;17.50;99.90
23289;DHT22;11813;50.834;4.280;2023-10-08T08:19:44;17.50;99.90
23289;DHT22;11813;50.834;4.280;2023-10-08T08:22:10;17.60;99.90
23289;DHT22;11813;50.834;4.280;2023-10-08T08:24:55;17.50;99.90
23289;DHT22;11813;50.834;4.280;2023-10-08T08:27:28;17.60;99.90
23289;DHT22;11813;50.834;4.280;2023-10-08T08:29:57;17.70;99.90
23289;DHT22;11813;50.834;4.280;2023-10-08T08:32:36;17.90;99.90
23289;DHT22;11813;50.834;4.280;2023-10-08T08:35:08;18.10;99.90
23289;DHT22;11813;50.834;4.280;2023-10-08T08:37:35;18.10;99.90
23289;DHT22;11813;50.834;4.280;2023-10-08T08:40:07;18.20;99.90
23289;DHT22;11813;50.834;4.280;2023-10-08T08:42:49;18.40;99.90
23289;DHT22;11813;50.834;4.280;2023-10-08T08:45:22;18.50;99.90
23289;DHT22;11813;50.834;4.280;2023-10-08T08:47:50;18.60;99.90
23289;DHT22;11813;50.834;4.280;2023-10-08T08:50:17;18.70;99.90
23289;DHT22;11813;50.834;4.280;2023-10-08T08:52:43;18.80;99.90
23289;DHT22;11813;50.834;4.280;2023-10-08T08:55:11;18.90;99.90
23289;DHT22;11813;50.834;4.280;2023-10-08T08:57:50;19.00;99.90
23289;DHT22;11813;50.834;4.280;2023-10-08T09:00:18;19.10;99.90
23289;DHT22;11813;50.834;4.280;2023-10-08T09:02:44;19.30;99.90
23289;DHT22;11813;50.834;4.280;2023-10-08T09:05:12;19.60;99.90
23289;DHT22;11813;50.834;4.280;2023-10-08T09:08:03;19.90;99.90
23289;DHT22;11813;50.834;4.280;2023-10-08T09:10:31;20.00;99.90
23289;DHT22;11813;50.834;4.280;2023-10-08T09:13:06;20.00;99.90
23289;DHT22;11813;50.834;4.280;2023-10-08T09:15:33;20.10;99.90
23289;DHT22;11813;50.834;4.280;2023-10-08T09:17:59;20.10;99.90
23289;DHT22;11813;50.834;4.280;2023-10-08T09:20:31;20.00;99.90
23289;DHT22;11813;50.834;4.280;2023-10-08T09:23:17;20.20;99.90
23289;DHT22;11813;50.834;4.280;2023-10-08T09:25:47;20.20;99.90
23289;DHT22;11813;50.834;4.280;2023-10-08T09:28:17;20.20;99.90
23289;DHT22;11813;50.834;4.280;2023-10-08T09:30:43;20.30;99.90
23289;DHT22;11813;50.834;4.280;2023-10-08T09:33:14;20.40;99.90
23289;DHT22;11813;50.834;4.280;2023-10-08T09:35:40;20.70;99.90
23289;DHT22;11813;50.834;4.280;2023-10-08T09:38:07;21.00;99.90
23289;DHT22;11813;50.834;4.280;2023-10-08T09:40:37;21.20;99.90
23289;DHT22;11813;50.834;4.280;2023-10-08T09:43:04;21.10;99.90
23289;DHT22;11813;50.834;4.280;2023-10-08T09:45:30;21.20;99.90
23289;DHT22;11813;50.834;4.280;2023-10-08T09:47:56;21.30;99.90
23289;DHT22;11813;50.834;4.280;2023-10-08T09:50:33;21.50;99.90
23289;DHT22;11813;50.834;4.280;2023-10-08T09:53:11;21.70;99.90
23289;DHT22;11813;50.834;4.280;2023-10-08T09:55:55;22.00;99.90
23289;DHT22;11813;50.834;4.280;2023-10-08T09:58:26;22.10;99.90
23289;DHT22;11813;50.834;4.280;2023-10-08T10:00:54;22.20;99.90
23289;DHT22;11813;50.834;4.280;2023-10-08T10:03:21;22.20;99.90
23289;DHT22;11813;50.834;4.280;2023-10-08T10:05:50;22.40;99.90
23289;DHT22;11813;50.834;4.280;2023-10-08T10:08:17;22.20;99.90
23289;DHT22;11813;50.834;4.280;2023-10-08T10:10:43;22.40;99.90
23289;DHT22;11813;50.834;4.280;2023-10-08T10:13:14;22.70;99.90
23289;DHT22;11813;50.834;4.280;2023-10-08T10:15:42;23.00;99.90
23289;DHT22;11813;50.834;4.280;2023-10-08T10:18:15;23.20;99.90
23289;DHT22;11813;50.834;4.280;2023-10-08T10:20:46;23.40;99.90
23289;DHT22;11813;50.834;4.280;2023-10-08T10:23:43;23.40;99.90
23289;DHT22;11813;50.834;4.280;2023-10-08T10:26:34;23.40;99.90
23289;DHT22;11813;50.834;4.280;2023-10-08T10:31:45;23.80;99.90
23289;DHT22;11813;50.834;4.280;2023-10-08T10:34:27;23.80;99.90
23289;DHT22;11813;50.834;4.280;2023-10-08T10:36:54;23.60;99.90
23289;DHT22;11813;50.834;4.280;2023-10-08T10:39:56;23.50;99.90
23289;DHT22;11813;50.834;4.280;2023-10-08T10:42:24;23.70;99.90
23289;DHT22;11813;50.834;4.280;2023-10-08T10:44:53;23.90;99.90
23289;DHT22;11813;50.834;4.280;2023-10-08T10:47:21;24.00;99.90
23289;DHT22;11813;50.834;4.280;2023-10-08T10:49:48;24.20;99.90
23289;DHT22;11813;50.834;4.280;2023-10-08T10:52:27;24.40;99.90
23289;DHT22;11813;50.834;4.280;2023-10-08T10:55:11;24.80;99.90
23289;DHT22;11813;50.834;4.280;2023-10-08T10:57:43;24.90;99.90
23289;DHT22;11813;50.834;4.280;2023-10-08T11:00:10;24.90;99.90
23289;DHT22;11813;50.834;4.280;2023-10-08T11:02:57;25.00;99.90
23289;DHT22;11813;50.834;4.280;2023-10-08T11:05:26;24.90;99.90
23289;DHT22;11813;50.834;4.280;2023-10-08T11:07:57;25.00;99.90
23289;DHT22;11813;50.834;4.280;2023-10-08T11:10:31;25.00;99.90
23289;DHT22;11813;50.834;4.280;2023-10-08T11:12:58;24.90;99.90
23289;DHT22;11813;50.834;4.280;2023-10-08T11:15:27;25.00;99.90
23289;DHT22;11813;50.834;4.280;2023-10-08T11:18:10;25.30;99.90
23289;DHT22;11813;50.834;4.280;2023-10-08T11:20:36;25.70;99.90
23289;DHT22;11813;50.834;4.280;2023-10-08T11:23:08;25.90;99.90
23289;DHT22;11813;50.834;4.280;2023-10-08T11:25:56;26.10;99.90
23289;DHT22;11813;50.834;4.280;2023-10-08T11:28:30;26.30;99.90
23289;DHT22;11813;50.834;4.280;2023-10-08T11:31:00;26.50;99.90
23289;DHT22;11813;50.834;4.280;2023-10-08T11:33:34;26.40;99.90
23289;DHT22;11813;50.834;4.280;2023-10-08T11:36:02;26.40;99.90
23289;DHT22;11813;50.834;4.280;2023-10-08T11:38:38;26.20;99.90
23289;DHT22;11813;50.834;4.280;2023-10-08T11:41:11;26.20;99.90
23289;DHT22;11813;50.834;4.280;2023-10-08T11:43:39;26.30;99.90
23289;DHT22;11813;50.834;4.280;2023-10-08T11:46:05;26.40;99.90
23289;DHT22;11813;50.834;4.280;2023-10-08T11:48:31;26.40;99.90
23289;DHT22;11813;50.834;4.280;2023-10-08T11:51:03;26.50;99.90
23289;DHT22;11813;50.834;4.280;2023-10-08T11:53:31;26.80;99.90
23289;DHT22;11813;50.834;4.280;2023-10-08T11:55:57;26.70;99.90
23289;DHT22;11813;50.834;4.280;2023-10-08T11:58:23;26.70;99.90
23289;DHT22;11813;50.834;4.280;2023-10-08T12:01:02;26.80;99.90
23289;DHT22;11813;50.834;4.280;2023-10-08T12:03:29;27.00;99.90
23289;DHT22;11813;50.834;4.280;2023-10-08T12:05:54;27.40;99.90
23289;DHT22;11813;50.834;4.280;2023-10-08T12:08:24;27.50;99.90
23289;DHT22;11813;50.834;4.280;2023-10-08T12:10:53;27.70;99.90
23289;DHT22;11813;50.834;4.280;2023-10-08T12:13:20;27.90;99.90
23289;DHT22;11813;50.834;4.280;2023-10-08T12:15:54;27.80;99.90
23289;DHT22;11813;50.834;4.280;2023-10-08T12:18:38;28.00;99.90
23289;DHT22;11813;50.834;4.280;2023-10-08T12:21:09;28.00;99.90
23289;DHT22;11813;50.834;4.280;2023-10-08T12:23:40;28.10;99.90
23289;DHT22;11813;50.834;4.280;2023-10-08T12:26:09;27.90;99.90
23289;DHT22;11813;50.834;4.280;2023-10-08T12:28:35;27.90;99.90
23289;DHT22;11813;50.834;4.280;2023-10-08T12:31:02;28.00;99.90
23289;DHT22;11813;50.834;4.280;2023-10-08T12:33:29;28.00;99.90
23289;DHT22;11813;50.834;4.280;2023-10-08T12:35:57;28.20;99.90
23289;DHT22;11813;50.834;4.280;2023-10-08T12:38:23;28.10;99.90
23289;DHT22;11813;50.834;4.280;2023-10-08T12:40:51;27.90;99.90
23289;DHT22;11813;50.834;4.280;2023-10-08T12:43:23;27.60;99.90
23289;DHT22;11813;50.834;4.280;2023-10-08T12:45:53;27.80;99.90
23289;DHT22;11813;50.834;4.280;2023-10-08T12:48:24;27.90;99.90
23289;DHT22;11813;50.834;4.280;2023-10-08T12:50:51;28.30;99.90
23289;DHT22;11813;50.834;4.280;2023-10-08T12:53:25;28.70;99.90
23289;DHT22;11813;50.834;4.280;2023-10-08T12:56:06;28.60;99.90
23289;DHT22;11813;50.834;4.280;2023-10-08T12:58:35;28.70;99.90
23289;DHT22;11813;50.834;4.280;2023-10-08T13:01:07;28.60;99.90
23289;DHT22;11813;50.834;4.280;2023-10-08T13:03:39;28.50;99.90
23289;DHT22;11813;50.834;4.280;2023-10-08T13:06:12;28.90;99.90
23289;DHT22;11813;50.834;4.280;2023-10-08T13:08:40;28.70;99.90
23289;DHT22;11813;50.834;4.280;2023-10-08T13:11:06;29.20;99.90
23289;DHT22;11813;50.834;4.280;2023-10-08T13:13:32;29.10;99.90
23289;DHT22;11813;50.834;4.280;2023-10-08T13:15:59;29.30;99.90
23289;DHT22;11813;50.834;4.280;2023-10-08T13:18:29;29.80;99.90
23289;DHT22;11813;50.834;4.280;2023-10-08T13:20:54;30.00;99.90
23289;DHT22;11813;50.834;4.280;2023-10-08T13:23:20;29.90;99.90
23289;DHT22;11813;50.834;4.280;2023-10-08T13:25:49;29.90;99.90
23289;DHT22;11813;50.834;4.280;2023-10-08T13:28:20;30.10;99.90
23289;DHT22;11813;50.834;4.280;2023-10-08T13:30:46;30.20;99.90
23289;DHT22;11813;50.834;4.280;2023-10-08T13:33:12;30.10;99.90
23289;DHT22;11813;50.834;4.280;2023-10-08T13:35:38;30.20;99.90
23289;DHT22;11813;50.834;4.280;2023-10-08T13:38:04;30.30;99.90
23289;DHT22;11813;50.834;4.280;2023-10-08T13:40:35;30.30;99.90
23289;DHT22;11813;50.834;4.280;2023-10-08T13:43:05;30.20;99.90
23289;DHT22;11813;50.834;4.280;2023-10-08T13:45:31;30.50;99.90
23289;DHT22;11813;50.834;4.280;2023-10-08T13:48:03;30.20;99.90
23289;DHT22;11813;50.834;4.280;2023-10-08T13:50:31;30.20;99.90
23289;DHT22;11813;50.834;4.280;2023-10-08T13:52:56;30.50;99.90
23289;DHT22;11813;50.834;4.280;2023-10-08T13:55:24;30.10;99.90
23289;DHT22;11813;50.834;4.280;2023-10-08T13:57:51;30.20;99.90
23289;DHT22;11813;50.834;4.280;2023-10-08T14:00:17;30.50;99.90
23289;DHT22;11813;50.834;4.280;2023-10-08T14:02:51;30.40;99.90
23289;DHT22;11813;50.834;4.280;2023-10-08T14:05:19;30.50;99.90
23289;DHT22;11813;50.834;4.280;2023-10-08T14:07:49;30.60;99.90
23289;DHT22;11813;50.834;4.280;2023-10-08T14:10:15;30.80;99.90
23289;DHT22;11813;50.834;4.280;2023-10-08T14:12:46;30.60;99.90
23289;DHT22;11813;50.834;4.280;2023-10-08T14:15:15;30.50;99.90
23289;DHT22;11813;50.834;4.280;2023-10-08T14:17:43;30.40;99.90
23289;DHT22;11813;50.834;4.280;2023-10-08T14:20:10;30.50;99.90
23289;DHT22;11813;50.834;4.280;2023-10-08T14:22:39;30.50;99.90
23289;DHT22;11813;50.834;4.280;2023-10-08T14:25:10;30.80;99.90
23289;DHT22;11813;50.834;4.280;2023-10-08T14:27:40;30.90;99.90
23289;DHT22;11813;50.834;4.280;2023-10-08T14:30:09;30.70;99.90
23289;DHT22;11813;50.834;4.280;2023-10-08T14:32:41;30.20;99.90
23289;DHT22;11813;50.834;4.280;2023-10-08T14:35:14;30.00;99.90
23289;DHT22;11813;50.834;4.280;2023-10-08T14:37:59;30.20;99.90
23289;DHT22;11813;50.834;4.280;2023-10-08T14:40:43;30.20;99.90
23289;DHT22;11813;50.834;4.280;2023-10-08T14:43:28;29.80;99.90
23289;DHT22;11813;50.834;4.280;2023-10-08T14:45:57;29.60;99.90
23289;DHT22;11813;50.834;4.280;2023-10-08T14:48:24;29.40;99.90
23289;DHT22;11813;50.834;4.280;2023-10-08T14:50:52;29.30;99.90
23289;DHT22;11813;50.834;4.280;2023-10-08T14:53:19;29.10;99.90
23289;DHT22;11813;50.834;4.280;2023-10-08T14:55:45;28.80;99.90
23289;DHT22;11813;50.834;4.280;2023-10-08T14:58:12;28.60;99.90
23289;DHT22;11813;50.834;4.280;2023-10-08T15:00:39;28.60;99.90
23289;DHT22;11813;50.834;4.280;2023-10-08T15:03:07;28.30;99.90
23289;DHT22;11813;50.834;4.280;2023-10-08T15:05:34;27.70;99.90
23289;DHT22;11813;50.834;4.280;2023-10-08T15:08:02;27.60;99.90
23289;DHT22;11813;50.834;4.280;2023-10-08T15:10:30;27.50;99.90
23289;DHT22;11813;50.834;4.280;2023-10-08T15:12:56;27.50;99.90
23289;DHT22;11813;50.834;4.280;2023-10-08T15:15:22;27.40;99.90
23289;DHT22;11813;50.834;4.280;2023-10-08T15:17:50;27.30;99.90
23289;DHT22;11813;50.834;4.280;2023-10-08T15:20:17;27.40;99.90
23289;DHT22;11813;50.834;4.280;2023-10-08T15:22:46;27.20;99.90
23289;DHT22;11813;50.834;4.280;2023-10-08T15:25:14;27.20;99.90
23289;DHT22;11813;50.834;4.280;2023-10-08T15:27:40;27.20;99.90
23289;DHT22;11813;50.834;4.280;2023-10-08T15:30:11;27.20;99.90
23289;DHT22;11813;50.834;4.280;2023-10-08T15:32:41;27.20;99.90
23289;DHT22;11813;50.834;4.280;2023-10-08T15:35:10;27.20;99.90
23289;DHT22;11813;50.834;4.280;2023-10-08T15:37:42;27.10;99.90
23289;DHT22;11813;50.834;4.280;2023-10-08T15:40:09;27.00;99.90
23289;DHT22;11813;50.834;4.280;2023-10-08T15:42:43;27.00;99.90
23289;DHT22;11813;50.834;4.280;2023-10-08T15:45:09;26.90;99.90
23289;DHT22;11813;50.834;4.280;2023-10-08T15:47:38;26.70;99.90
23289;DHT22;11813;50.834;4.280;2023-10-08T15:50:05;26.70;99.90
23289;DHT22;11813;50.834;4.280;2023-10-08T15:52:30;26.60;99.90
23289;DHT22;11813;50.834;4.280;2023-10-08T15:54:57;26.60;99.90
23289;DHT22;11813;50.834;4.280;2023-10-08T15:57:23;26.60;99.90
23289;DHT22;11813;50.834;4.280;2023-10-08T15:59:49;26.70;99.90